Decoded Metar for KW29 (STEVENSVILLE in MD, USA) (IATA:W29) | Meteo·Mobile Aviation Weather
aviador You're here:

KW29 Decoded Metar

STEVENSVILLE in MD, USA
Report Time2019-04-19 11:20:00
UTC Time2019-04-19 11:33:15
Flight Rules mvfr MVFR
Wind180° at 10 kt
Visibility9999 m
Phenomena:N/A
Clouds:Overcast 020 Hf
Expected CloudBase > 800 ft AGL from Temp-Dew spread
Ceiling2,000 ft
Temp19°C (ISA +4)
Dew Point17°C (88% RH)
AAT17.8°C
QNH1009 hPa
Density Alt922 ft
Elevation49 ft
Report Wrong Elevation
Raw Report
METAR KW29 191120Z AUTO 18010KT 10SM OVC020 19/17 A2979 RMK AO2 P0001=

Extra information for KW29:More info

Metar Taf Metar & Taf Last 4 Metars F.Rules Stats Wind Profile Meteogram Temp Stats Airport Information Weather charts Add Link Nearby VenuesMetar ALERT Operation Metar Decoded Social comments

AIRNAV info for KW29